Photometre #742[NE_1.6_Dp] OHP_OBSERVATOIRE AOT

File : 20190927_742.hum

27/09/2019,06:19:39,TEMP=15.4,BA=5.64,STAT.A,ExtBa=13.20
27/09/2019,06:23:15,TEMP=15.9,BA=5.52,STAT.A,ExtBa=13.16
27/09/2019,06:27:27,TEMP=16.2,BA=5.52,STAT.A,ExtBa=13.12
27/09/2019,06:32:27,TEMP=16.6,BA=5.64,STAT.A,ExtBa=13.15
27/09/2019,06:38:30,TEMP=17.1,BA=5.64,STAT.A,ExtBa=13.15
27/09/2019,06:45:57,TEMP=17.9,BA=5.48,STAT.A,ExtBa=13.16
27/09/2019,06:55:24,TEMP=18.8,BA=5.64,STAT.B,ExtBa=13.18
27/09/2019,07:03:16,TEMP=19.7,BA=5.48,STAT.A,ExtBa=12.75
27/09/2019,07:05:12,TEMP=20.1,BA=5.48,STAT.A,ExtBa=12.82
27/09/2019,07:10:44,TEMP=20.1,BA=5.64,STAT.A,ExtBa=12.98
27/09/2019,07:17:15,TEMP=20.6,BA=5.64,STAT.A,ExtBa=13.10
27/09/2019,07:24:46,TEMP=21.2,BA=5.64,STAT.C,ExtBa=13.17
27/09/2019,07:46:06,TEMP=23.5,BA=5.48,STAT.A,ExtBa=12.83
27/09/2019,07:48:03,TEMP=23.2,BA=5.48,STAT.A,ExtBa=12.88
27/09/2019,07:56:24,TEMP=22.4,BA=5.60,STAT.A,ExtBa=13.13
27/09/2019,08:11:53,TEMP=23.8,BA=5.64,STAT.A,ExtBa=13.32
27/09/2019,08:28:51,TEMP=24.6,BA=5.64,STAT.F,ExtBa=13.34
27/09/2019,08:50:42,TEMP=26.1,BA=5.44,STAT.D,ExtBa=12.84
27/09/2019,08:58:50,TEMP=24.6,BA=5.44,STAT.D,ExtBa=13.12
27/09/2019,09:13:50,TEMP=25.3,BA=5.60,STAT.D,ExtBa=13.29
27/09/2019,09:28:52,TEMP=25.9,BA=5.60,STAT.F,ExtBa=13.30
27/09/2019,09:54:24,TEMP=26.7,BA=5.48,STAT.D,ExtBa=13.06
27/09/2019,09:58:50,TEMP=26.9,BA=5.48,STAT.D,ExtBa=13.11
27/09/2019,10:13:50,TEMP=27.3,BA=5.60,STAT.D,ExtBa=13.28
27/09/2019,10:28:52,TEMP=27.4,BA=5.60,STAT.F,ExtBa=13.29
27/09/2019,10:50:11,TEMP=29.0,BA=5.44,STAT.D,ExtBa=12.85
27/09/2019,10:58:50,TEMP=27.8,BA=5.44,STAT.D,ExtBa=13.14
27/09/2019,11:13:50,TEMP=27.8,BA=5.60,STAT.D,ExtBa=13.28
27/09/2019,11:28:52,TEMP=27.8,BA=5.60,STAT.F,ExtBa=13.29
27/09/2019,11:49:44,TEMP=29.0,BA=5.44,STAT.D,ExtBa=12.85
27/09/2019,11:58:50,TEMP=27.4,BA=5.44,STAT.D,ExtBa=13.14
27/09/2019,12:13:50,TEMP=27.7,BA=5.60,STAT.D,ExtBa=13.27
27/09/2019,12:28:52,TEMP=28.0,BA=5.60,STAT.F,ExtBa=13.28
27/09/2019,12:50:18,TEMP=29.4,BA=5.48,STAT.D,ExtBa=12.84
27/09/2019,12:58:50,TEMP=28.0,BA=5.48,STAT.D,ExtBa=13.12
27/09/2019,13:13:50,TEMP=27.8,BA=5.60,STAT.D,ExtBa=13.25
27/09/2019,13:28:51,TEMP=27.9,BA=5.60,STAT.F,ExtBa=13.26
27/09/2019,13:50:05,TEMP=29.2,BA=5.44,STAT.D,ExtBa=12.82
27/09/2019,13:58:50,TEMP=27.9,BA=5.44,STAT.D,ExtBa=13.11
27/09/2019,14:13:50,TEMP=27.9,BA=5.60,STAT.D,ExtBa=13.25
27/09/2019,14:28:51,TEMP=27.4,BA=5.60,STAT.F,ExtBa=13.26
27/09/2019,14:51:28,TEMP=28.5,BA=5.44,STAT.A,ExtBa=12.80
27/09/2019,15:01:18,TEMP=27.2,BA=5.60,STAT.A,ExtBa=13.12
27/09/2019,15:13:49,TEMP=27.1,BA=5.60,STAT.A,ExtBa=13.22
27/09/2019,15:24:10,TEMP=26.6,BA=5.60,STAT.A,ExtBa=13.25
27/09/2019,15:32:56,TEMP=26.7,BA=5.60,STAT.C,ExtBa=13.26
27/09/2019,15:56:26,TEMP=26.9,BA=5.40,STAT.A,ExtBa=12.75
27/09/2019,15:58:29,TEMP=26.5,BA=5.40,STAT.A,ExtBa=12.77
27/09/2019,16:00:28,TEMP=26.3,BA=5.40,STAT.A,ExtBa=12.81
27/09/2019,16:02:34,TEMP=26.1,BA=5.40,STAT.A,ExtBa=12.78
27/09/2019,16:04:29,TEMP=26.0,BA=5.40,STAT.B,ExtBa=12.81
27/09/2019,16:12:34,TEMP=25.1,BA=5.40,STAT.A,ExtBa=12.74
27/09/2019,16:19:10,TEMP=24.7,BA=5.40,STAT.A,ExtBa=13.00
27/09/2019,16:25:13,TEMP=24.2,BA=5.44,STAT.A,ExtBa=13.07
27/09/2019,16:30:13,TEMP=23.9,BA=5.52,STAT.A,ExtBa=13.09
27/09/2019,16:41:28,TEMP=23.4,BA=5.48,STAT.A,ExtBa=13.20
27/09/2019,16:43:24,TEMP=23.8,BA=5.48,STAT.A,ExtBa=13.08